LFBY/XDA METAR and TAF weather

Enter ICAO airport designator
Station Type Date Time Source
LFBY METAR 2020/09/25 07:00 UTC NOAA

LFBY 250700Z 31014G32KT 250V360 6000 TS SHRA SCT020 BKN033CB BKN050 13/09 Q1014


Station Type Date Time Source
LFBY Decoded METAR 2020/09/25 07:00 UTC NOAA

Dax, France (LFBY) 43-41N 001-04W 32M
Sep 25, 2020 - 03:00 AM EDT / 2020.09.25 0700 UTC
Wind: from the NW (310 degrees) at 16 MPH (14 KT) gusting to 37 MPH (32 KT) (direction variable):0
Visibility: 3 mile(s):0
Sky conditions: mostly cloudy
Weather: thunder; rain showers; Cumulonimbus clouds observed
Temperature: 55 F (13 C)
Dew Point: 48 F (9 C)
Relative Humidity: 76%
Pressure (altimeter): 29.94 in. Hg (1014 hPa)
ob: LFBY 250700Z 31014G32KT 250V360 6000 TS SHRA SCT020 BKN033CB BKN050 13/09 Q1014
cycle: 7

Station Type Date Time Source
LFBY TAF UTC NOAA

Error!

Example: see airport list